createdAt,value
2023-11-24T00:01:54.664Z,100627.09
2023-11-24T00:04:21.090Z,100624.53
2023-11-24T00:06:47.513Z,100644.06
2023-11-24T00:09:14.683Z,100707.69
2023-11-24T00:11:43.526Z,100714.28
2023-11-24T00:14:10.141Z,100719.69
2023-11-24T00:16:39.993Z,100700.78
2023-11-24T00:19:11.717Z,100724.44
2023-11-24T00:21:38.358Z,100728.53
2023-11-24T00:24:05.864Z,100735.81
2023-11-24T00:26:33.434Z,100734.88
2023-11-24T00:29:00.830Z,100733.91
2023-11-24T00:31:27.444Z,100736.91
2023-11-24T00:33:54.265Z,100743.88
2023-11-24T00:36:22.034Z,100742.75
2023-11-24T00:38:51.385Z,100745.31
2023-11-24T00:41:18.452Z,100749.16
2023-11-24T00:43:48.737Z,100749.25
2023-11-24T00:46:16.193Z,100738.13
2023-11-24T00:48:42.694Z,100736.47
2023-11-24T00:51:09.109Z,100739.88
2023-11-24T00:53:36.257Z,100745.72
2023-11-24T00:56:03.035Z,100738.75
2023-11-24T00:58:29.404Z,100735.22
2023-11-24T01:00:56.154Z,100736.97
2023-11-24T01:03:22.948Z,100742.56
2023-11-24T01:05:53.918Z,100754.22
2023-11-24T01:08:20.799Z,100756.13
2023-11-24T01:10:47.729Z,100755.59
2023-11-24T01:13:14.330Z,100753.69
2023-11-24T01:15:40.774Z,100754.19
2023-11-24T01:18:08.055Z,100753.41
2023-11-24T01:20:35.813Z,100753.88
2023-11-24T01:23:02.392Z,100759.47
2023-11-24T01:25:28.836Z,100749.53
2023-11-24T01:27:56.289Z,100752.22
2023-11-24T01:30:22.779Z,100727.97
2023-11-24T01:32:49.289Z,100730.81
2023-11-24T01:35:15.751Z,100735.84
2023-11-24T01:37:42.174Z,100737.25
2023-11-24T01:40:09.616Z,100743.13
2023-11-24T01:42:39.625Z,100729.16
2023-11-24T01:45:08.728Z,100732.69
2023-11-24T01:47:35.386Z,100730.59
2023-11-24T01:50:03.675Z,100735.78
2023-11-24T01:52:31.865Z,100744.19
2023-11-24T01:54:58.347Z,100746.75
2023-11-24T01:57:25.091Z,100748.63
2023-11-24T01:59:51.745Z,100754.56
2023-11-24T02:02:21.843Z,100758.09
2023-11-24T02:04:48.582Z,100760.09
2023-11-24T02:07:15.223Z,100754.09
2023-11-24T02:09:42.260Z,100749.03
2023-11-24T02:12:08.751Z,100748.63
2023-11-24T02:14:35.168Z,100744.47
2023-11-24T02:17:01.578Z,100736.06
2023-11-24T02:19:28.474Z,100743.41
2023-11-24T02:21:55.024Z,100745.88
2023-11-24T02:24:21.493Z,100751.22
2023-11-24T02:26:47.927Z,100752.97
2023-11-24T02:29:14.371Z,100747.09
2023-11-24T02:31:41.210Z,100750.53
2023-11-24T02:34:08.930Z,100747.84
2023-11-24T02:36:37.386Z,100745.00
2023-11-24T02:39:04.527Z,100740.22
2023-11-24T02:41:31.415Z,100730.41
2023-11-24T02:43:57.940Z,100736.56
2023-11-24T02:46:24.389Z,100735.31
2023-11-24T02:48:50.814Z,100731.78
2023-11-24T02:51:19.153Z,100739.53
2023-11-24T02:53:46.305Z,100733.91
2023-11-24T02:56:13.734Z,100724.31
2023-11-24T02:58:40.280Z,100720.22
2023-11-24T03:01:06.850Z,100702.97
2023-11-24T03:03:33.701Z,100702.88
2023-11-24T03:06:06.763Z,100700.56
2023-11-24T03:08:33.797Z,100702.78
2023-11-24T03:11:06.047Z,100694.19
2023-11-24T03:13:35.825Z,100685.50
2023-11-24T03:16:04.549Z,100683.44
2023-11-24T03:18:31.071Z,100688.84
2023-11-24T03:20:57.479Z,100697.75
2023-11-24T03:23:24.595Z,100695.16
2023-11-24T03:25:51.463Z,100691.03
2023-11-24T03:28:19.499Z,100677.78
2023-11-24T03:30:47.547Z,100685.50
2023-11-24T03:33:15.606Z,100677.75
2023-11-24T03:35:42.057Z,100684.56
2023-11-24T03:38:08.729Z,100672.00
2023-11-24T03:40:35.159Z,100675.50
2023-11-24T03:43:03.683Z,100675.66
2023-11-24T03:45:30.862Z,100673.97
2023-11-24T03:47:57.325Z,100680.72
2023-11-24T03:50:24.193Z,100679.91
2023-11-24T03:52:50.597Z,100679.41
2023-11-24T03:55:17.091Z,100672.44
2023-11-24T03:57:45.263Z,100676.97
2023-11-24T04:00:12.064Z,100674.59
2023-11-24T04:02:39.185Z,100675.22
2023-11-24T04:05:06.674Z,100673.22
2023-11-24T04:07:33.193Z,100671.25
2023-11-24T04:09:59.645Z,100673.09
2023-11-24T04:12:26.084Z,100677.72
2023-11-24T04:14:53.530Z,100670.69
2023-11-24T04:17:19.913Z,100673.19
2023-11-24T04:19:46.327Z,100669.00
2023-11-24T04:22:12.736Z,100668.47
2023-11-24T04:24:40.050Z,100659.81
2023-11-24T04:27:06.523Z,100662.00
2023-11-24T04:29:32.958Z,100653.84
2023-11-24T04:31:59.292Z,100661.94
2023-11-24T04:34:25.789Z,100665.28
2023-11-24T04:36:53.055Z,100653.94
2023-11-24T04:39:19.493Z,100654.28
2023-11-24T04:41:48.623Z,100656.22
2023-11-24T04:44:15.341Z,100645.38
2023-11-24T04:46:41.784Z,100643.03
2023-11-24T04:49:08.314Z,100642.22
2023-11-24T04:51:34.757Z,100638.53
2023-11-24T04:54:03.809Z,100642.09
2023-11-24T04:56:30.996Z,100634.91
2023-11-24T04:58:57.828Z,100627.91
2023-11-24T05:01:25.625Z,100625.25
2023-11-24T05:03:54.932Z,100624.28
2023-11-24T05:06:22.124Z,100621.41
2023-11-24T05:08:49.077Z,100613.31
2023-11-24T05:11:15.511Z,100615.53
2023-11-24T05:13:41.855Z,100608.72
2023-11-24T05:16:08.378Z,100609.19
2023-11-24T05:18:34.801Z,100610.09
2023-11-24T05:21:01.167Z,100617.03
2023-11-24T05:23:27.514Z,100617.06
2023-11-24T05:25:54.228Z,100618.81
2023-11-24T05:28:20.768Z,100624.88
2023-11-24T05:30:47.178Z,100622.84
2023-11-24T05:33:13.663Z,100617.00
2023-11-24T05:35:40.054Z,100616.41
2023-11-24T05:38:06.694Z,100618.84
2023-11-24T05:40:33.112Z,100615.47
2023-11-24T05:42:59.577Z,100613.31
2023-11-24T05:45:25.992Z,100623.03
2023-11-24T05:47:52.669Z,100623.59
2023-11-24T05:50:23.664Z,100626.41
2023-11-24T05:52:50.294Z,100614.03
2023-11-24T05:55:16.815Z,100610.75
2023-11-24T05:57:44.159Z,100604.13
2023-11-24T06:00:12.599Z,100612.75
2023-11-24T06:02:38.992Z,100614.94
2023-11-24T06:05:06.225Z,100599.91
2023-11-24T06:07:32.748Z,100606.66
2023-11-24T06:09:59.149Z,100593.66
2023-11-24T06:12:26.098Z,100590.47
2023-11-24T06:14:52.546Z,100594.38
2023-11-24T06:17:19.107Z,100589.63
2023-11-24T06:19:45.543Z,100589.50
2023-11-24T06:22:11.949Z,100595.72
2023-11-24T06:24:38.346Z,100595.47
2023-11-24T06:27:05.471Z,100601.44
2023-11-24T06:29:32.120Z,100590.00
2023-11-24T06:31:58.464Z,100593.81
2023-11-24T06:34:26.073Z,100595.97
2023-11-24T06:36:52.818Z,100593.72
2023-11-24T06:39:22.620Z,100584.56
2023-11-24T06:41:49.023Z,100587.34
2023-11-24T06:44:17.083Z,100587.19
2023-11-24T06:46:43.847Z,100582.88
2023-11-24T06:49:10.900Z,100573.31
2023-11-24T06:51:37.458Z,100574.31
2023-11-24T06:54:04.258Z,100576.25
2023-11-24T06:56:32.349Z,100581.41
2023-11-24T06:58:58.741Z,100578.94
2023-11-24T07:01:33.858Z,100582.25
2023-11-24T07:04:01.042Z,100577.19
2023-11-24T07:06:27.588Z,100581.56
2023-11-24T07:08:54.038Z,100576.06
2023-11-24T07:11:21.467Z,100569.75
2023-11-24T07:13:48.050Z,100575.41
2023-11-24T07:16:15.099Z,100565.41
2023-11-24T07:18:41.757Z,100570.13
2023-11-24T07:21:08.741Z,100564.91
2023-11-24T07:23:38.560Z,100566.53
2023-11-24T07:26:09.270Z,100563.75
2023-11-24T07:28:37.157Z,100553.19
2023-11-24T07:31:05.126Z,100556.00
2023-11-24T07:33:34.799Z,100553.44
2023-11-24T07:36:01.529Z,100553.91
2023-11-24T07:38:27.982Z,100559.53
2023-11-24T07:40:55.220Z,100555.38
2023-11-24T07:43:21.601Z,100567.09
2023-11-24T07:45:50.175Z,100569.16
2023-11-24T07:48:16.751Z,100557.63
2023-11-24T07:50:43.176Z,100565.75
2023-11-24T07:53:16.226Z,100573.84
2023-11-24T07:55:42.822Z,100576.06
2023-11-24T07:58:09.970Z,100560.25
2023-11-24T08:00:36.496Z,100553.50
2023-11-24T08:03:04.345Z,100554.00
2023-11-24T08:05:30.955Z,100558.13
2023-11-24T08:07:58.465Z,100560.06
2023-11-24T08:10:26.176Z,100545.69
2023-11-24T08:15:43.039Z,100538.59
2023-11-24T08:18:09.527Z,100526.22
2023-11-24T08:20:36.073Z,100527.06
2023-11-24T08:23:02.423Z,100522.28
2023-11-24T08:25:28.785Z,100516.31
2023-11-24T08:27:55.174Z,100513.63
2023-11-24T08:30:21.522Z,100520.63
2023-11-24T08:32:49.725Z,100509.78
2023-11-24T08:35:16.592Z,100514.16
2023-11-24T08:37:43.161Z,100518.78
2023-11-24T08:40:12.446Z,100538.63
2023-11-24T08:42:39.776Z,100555.72
2023-11-24T08:45:07.637Z,100559.84
2023-11-24T08:47:34.120Z,100572.63
2023-11-24T08:50:00.973Z,100560.34
2023-11-24T08:52:27.588Z,100543.38
2023-11-24T08:54:53.968Z,100531.94
2023-11-24T08:57:20.382Z,100524.09
2023-11-24T08:59:46.796Z,100522.91
2023-11-24T09:02:13.438Z,100526.16
2023-11-24T09:04:39.900Z,100529.44
2023-11-24T09:07:06.431Z,100519.09
2023-11-24T09:09:34.444Z,100516.53
2023-11-24T09:12:01.684Z,100506.56
2023-11-24T09:14:28.435Z,100502.25
2023-11-24T09:16:55.314Z,100511.13
2023-11-24T09:19:21.731Z,100505.25
2023-11-24T09:21:49.537Z,100488.91
2023-11-24T09:24:16.500Z,100486.00
2023-11-24T09:26:44.488Z,100495.72
2023-11-24T09:29:11.247Z,100488.94
2023-11-24T09:31:38.195Z,100485.75
2023-11-24T09:34:05.432Z,100483.38
2023-11-24T09:36:31.942Z,100489.69
2023-11-24T09:38:58.370Z,100481.63
2023-11-24T09:41:24.763Z,100482.75
2023-11-24T09:43:51.271Z,100471.09
2023-11-24T09:46:20.651Z,100476.97
2023-11-24T09:48:49.148Z,100468.78
2023-11-24T09:51:18.440Z,100472.78
2023-11-24T09:53:45.322Z,100462.38
2023-11-24T09:56:11.955Z,100462.31
2023-11-24T09:58:38.415Z,100449.97
2023-11-24T10:01:17.793Z,100441.16
2023-11-24T10:03:50.972Z,100431.66
2023-11-24T10:06:19.285Z,100427.34
2023-11-24T10:08:48.838Z,100414.22
2023-11-24T10:11:19.291Z,100409.00
2023-11-24T10:13:49.952Z,100403.56
2023-11-24T10:16:17.959Z,100409.19
2023-11-24T10:18:44.657Z,100402.34
2023-11-24T10:21:23.097Z,100384.59
2023-11-24T10:23:57.201Z,100399.47
2023-11-24T10:26:26.115Z,100394.88
2023-11-24T10:28:53.430Z,100390.63
2023-11-24T10:31:20.797Z,100391.63
2023-11-24T10:33:48.404Z,100381.91
2023-11-24T10:36:18.302Z,100380.38
2023-11-24T10:38:47.340Z,100379.97
2023-11-24T10:41:20.760Z,100379.78
2023-11-24T10:43:49.504Z,100367.72
2023-11-24T10:46:19.531Z,100372.50
2023-11-24T10:49:00.646Z,100362.25
2023-11-24T10:51:33.330Z,100352.38
2023-11-24T10:54:03.617Z,100365.78
2023-11-24T10:56:32.414Z,100370.16
2023-11-24T10:59:00.696Z,100357.47
2023-11-24T11:01:28.559Z,100347.16
2023-11-24T11:03:59.958Z,100360.69
2023-11-24T11:06:49.680Z,100356.47
2023-11-24T11:09:24.911Z,100348.78
2023-11-24T11:12:30.724Z,100354.59
2023-11-24T11:14:57.285Z,100347.81
2023-11-24T11:17:26.294Z,100344.19
2023-11-24T11:20:24.348Z,100355.72
2023-11-24T11:23:00.816Z,100358.34
2023-11-24T11:25:27.113Z,100374.91
2023-11-24T11:27:56.962Z,100383.38
2023-11-24T11:30:27.104Z,100375.44
2023-11-24T11:33:04.608Z,100373.13
2023-11-24T11:35:35.357Z,100362.47
2023-11-24T11:38:01.835Z,100356.34
2023-11-24T11:40:28.217Z,100343.94
2023-11-24T11:43:00.726Z,100347.00
2023-11-24T11:45:31.177Z,100342.78
2023-11-24T11:48:04.022Z,100343.47
2023-11-24T11:50:34.758Z,100348.00
2023-11-24T11:53:03.204Z,100351.22
2023-11-24T11:55:30.267Z,100361.13
2023-11-24T11:57:58.646Z,100360.22
2023-11-24T12:00:30.176Z,100350.31
2023-11-24T12:02:58.472Z,100353.13
2023-11-24T12:05:27.081Z,100355.34
2023-11-24T12:08:00.401Z,100345.84
2023-11-24T12:10:30.608Z,100348.03
2023-11-24T12:13:00.394Z,100347.69
2023-11-24T12:15:26.783Z,100340.44
2023-11-24T12:17:58.722Z,100343.22
2023-11-24T12:20:25.645Z,100335.31
2023-11-24T12:22:53.484Z,100330.97
2023-11-24T12:25:22.281Z,100337.97
2023-11-24T12:27:48.907Z,100326.56
2023-11-24T12:30:16.099Z,100333.25
2023-11-24T12:32:43.873Z,100323.09
2023-11-24T12:35:10.581Z,100320.84
2023-11-24T12:37:41.841Z,100330.59
2023-11-24T12:40:13.144Z,100320.22
2023-11-24T12:42:40.388Z,100312.78
2023-11-24T12:45:09.365Z,100322.63
2023-11-24T12:50:11.785Z,100323.56
2023-11-24T12:52:40.091Z,100321.00
2023-11-24T12:55:10.523Z,100309.97
2023-11-24T12:57:43.490Z,100316.66
2023-11-24T13:00:14.468Z,100311.72
2023-11-24T13:02:44.724Z,100321.50
2023-11-24T13:05:13.643Z,100325.69
2023-11-24T13:07:43.848Z,100320.00
2023-11-24T13:10:13.815Z,100323.88
2023-11-24T13:12:41.348Z,100323.13
2023-11-24T13:15:09.249Z,100316.31
2023-11-24T13:17:36.197Z,100314.41
2023-11-24T13:20:05.422Z,100313.31
2023-11-24T13:22:34.972Z,100321.31
2023-11-24T13:25:02.228Z,100318.66
2023-11-24T13:27:30.426Z,100308.94
2023-11-24T13:29:57.833Z,100300.59
2023-11-24T13:32:24.231Z,100299.84
2023-11-24T13:34:51.336Z,100300.84
2023-11-24T13:37:18.624Z,100295.19
2023-11-24T13:39:46.735Z,100293.38
2023-11-24T13:42:17.244Z,100283.28
2023-11-24T13:44:43.596Z,100277.97
2023-11-24T13:47:14.674Z,100276.38
2023-11-24T13:49:41.773Z,100274.47
2023-11-24T13:52:08.497Z,100279.09
2023-11-24T13:54:36.462Z,100286.91
2023-11-24T13:57:03.762Z,100287.66
2023-11-24T13:59:30.850Z,100288.06
2023-11-24T14:01:57.344Z,100285.03
2023-11-24T14:04:25.548Z,100289.84
2023-11-24T14:06:52.829Z,100285.66
2023-11-24T14:09:30.467Z,100297.66
2023-11-24T14:11:57.492Z,100300.03
2023-11-24T14:14:24.608Z,100289.53
2023-11-24T14:16:51.464Z,100282.38
2023-11-24T14:19:18.247Z,100284.34
2023-11-24T14:21:45.067Z,100288.00
2023-11-24T14:24:12.651Z,100287.97
2023-11-24T14:26:45.110Z,100294.41
2023-11-24T14:29:13.673Z,100293.91
2023-11-24T14:31:41.035Z,100301.84
2023-11-24T14:34:07.780Z,100308.22
2023-11-24T14:36:36.857Z,100303.41
2023-11-24T14:39:04.409Z,100296.66
2023-11-24T14:41:33.745Z,100303.75
2023-11-24T14:44:00.419Z,100298.28
2023-11-24T14:46:30.892Z,100304.13
2023-11-24T14:48:57.970Z,100286.75
2023-11-24T14:51:27.518Z,100286.03
2023-11-24T14:53:53.961Z,100282.53
2023-11-24T14:56:20.537Z,100279.88
2023-11-24T14:58:47.187Z,100268.38
2023-11-24T15:01:20.872Z,100270.09
2023-11-24T15:03:50.558Z,100276.22
2023-11-24T15:06:18.945Z,100271.47
2023-11-24T15:08:55.248Z,100272.41
2023-11-24T15:11:23.349Z,100267.66
2023-11-24T15:13:55.925Z,100281.25
2023-11-24T15:16:29.718Z,100266.63
2023-11-24T15:18:56.756Z,100281.31
2023-11-24T15:21:34.768Z,100274.44
2023-11-24T15:24:03.276Z,100272.66
2023-11-24T15:26:30.026Z,100278.41
2023-11-24T15:28:57.066Z,100274.44
2023-11-24T15:31:30.359Z,100273.50
2023-11-24T15:33:58.047Z,100268.28
2023-11-24T15:36:30.573Z,100277.88
2023-11-24T15:38:57.820Z,100295.38
2023-11-24T15:41:38.983Z,100300.84
2023-11-24T15:44:10.292Z,100296.56
2023-11-24T15:46:39.144Z,100303.44
2023-11-24T15:49:16.713Z,100314.03
2023-11-24T15:51:46.847Z,100314.09
2023-11-24T15:54:14.486Z,100317.25
2023-11-24T15:56:40.910Z,100310.22
2023-11-24T15:59:12.413Z,100316.31
2023-11-24T16:01:42.499Z,100318.00
2023-11-24T16:04:11.766Z,100322.03
2023-11-24T16:06:46.569Z,100310.84
2023-11-24T16:09:13.863Z,100319.41
2023-11-24T16:11:58.986Z,100323.34
2023-11-24T16:14:25.676Z,100321.50
2023-11-24T16:16:53.646Z,100311.19
2023-11-24T16:19:20.594Z,100311.31
2023-11-24T16:21:47.000Z,100308.06
2023-11-24T16:24:13.415Z,100309.00
2023-11-24T16:26:39.788Z,100313.22
2023-11-24T16:29:06.152Z,100315.78
2023-11-24T16:31:34.068Z,100315.19
2023-11-24T16:34:02.331Z,100310.22
2023-11-24T16:36:28.919Z,100306.88
2023-11-24T16:38:55.824Z,100302.22
2023-11-24T16:41:22.216Z,100303.94
2023-11-24T16:43:48.574Z,100298.75
2023-11-24T16:46:15.006Z,100297.88
2023-11-24T16:48:41.670Z,100295.53
2023-11-24T16:51:08.561Z,100298.66
2023-11-24T16:53:34.912Z,100296.78
2023-11-24T16:56:01.327Z,100299.94
2023-11-24T16:58:27.766Z,100294.59
2023-11-24T17:00:55.395Z,100313.09
2023-11-24T17:03:21.889Z,100328.81
2023-11-24T17:05:48.340Z,100345.50
2023-11-24T17:08:14.674Z,100386.31
2023-11-24T17:10:41.089Z,100411.22
2023-11-24T17:13:07.787Z,100404.41
2023-11-24T17:15:34.361Z,100355.13
2023-11-24T17:18:00.762Z,100333.50
2023-11-24T17:20:28.015Z,100334.31
2023-11-24T17:22:54.542Z,100336.84
2023-11-24T17:25:32.092Z,100327.25
2023-11-24T17:28:03.247Z,100346.97
2023-11-24T17:30:29.684Z,100341.78
2023-11-24T17:32:56.282Z,100332.97
2023-11-24T17:35:24.940Z,100328.41
2023-11-24T17:37:52.244Z,100319.94
2023-11-24T17:40:18.716Z,100320.34
2023-11-24T17:42:45.489Z,100311.78
2023-11-24T17:45:16.780Z,100302.09
2023-11-24T17:47:45.305Z,100309.81
2023-11-24T17:50:11.790Z,100311.31
2023-11-24T17:52:39.487Z,100303.53
2023-11-24T17:55:10.112Z,100299.94
2023-11-24T17:57:39.948Z,100287.31
2023-11-24T18:00:12.542Z,100288.00
2023-11-24T18:02:39.656Z,100289.63
2023-11-24T18:05:07.964Z,100298.09
2023-11-24T18:07:35.349Z,100289.97
2023-11-24T18:10:03.464Z,100284.78
2023-11-24T18:12:30.002Z,100283.06
2023-11-24T18:14:56.345Z,100280.19
2023-11-24T18:17:22.765Z,100289.09
2023-11-24T18:19:50.387Z,100296.13
2023-11-24T18:22:18.524Z,100305.53
2023-11-24T18:24:45.071Z,100310.00
2023-11-24T18:27:11.449Z,100311.72
2023-11-24T18:29:38.962Z,100316.91
2023-11-24T18:32:05.872Z,100305.06
2023-11-24T18:34:32.289Z,100306.03
2023-11-24T18:36:59.028Z,100305.28
2023-11-24T18:39:28.700Z,100308.56
2023-11-24T18:41:55.383Z,100311.28
2023-11-24T18:44:21.758Z,100308.72
2023-11-24T18:46:49.174Z,100301.34
2023-11-24T18:49:16.705Z,100303.69
2023-11-24T18:51:44.025Z,100298.47
2023-11-24T18:54:10.662Z,100298.28
2023-11-24T18:56:37.144Z,100292.34
2023-11-24T18:59:03.483Z,100288.13
2023-11-24T19:01:29.926Z,100287.41
2023-11-24T19:03:56.405Z,100291.84
2023-11-24T19:06:23.681Z,100292.75
2023-11-24T19:08:51.895Z,100290.25
2023-11-24T19:11:21.612Z,100289.50
2023-11-24T19:13:49.669Z,100282.53
2023-11-24T19:16:16.475Z,100295.75
2023-11-24T19:18:43.624Z,100284.53
2023-11-24T19:21:16.797Z,100289.69
2023-11-24T19:23:43.566Z,100274.03
2023-11-24T19:26:12.810Z,100264.44
2023-11-24T19:28:41.433Z,100261.22
2023-11-24T19:31:08.590Z,100261.19
2023-11-24T19:33:35.835Z,100273.97
2023-11-24T19:36:02.303Z,100265.28
2023-11-24T19:38:28.798Z,100267.06
2023-11-24T19:40:55.193Z,100269.38
2023-11-24T19:43:21.590Z,100261.84
2023-11-24T19:45:48.327Z,100272.84
2023-11-24T19:48:18.728Z,100259.78
2023-11-24T19:50:45.087Z,100252.97
2023-11-24T19:53:11.594Z,100256.16
2023-11-24T19:55:38.019Z,100253.78
2023-11-24T19:58:06.789Z,100251.59
2023-11-24T20:00:33.158Z,100241.34
2023-11-24T20:02:59.598Z,100258.66
2023-11-24T20:05:28.282Z,100256.91
2023-11-24T20:07:54.697Z,100242.91
2023-11-24T20:10:21.115Z,100234.38
2023-11-24T20:12:47.495Z,100247.22
2023-11-24T20:15:14.371Z,100239.72
2023-11-24T20:17:40.784Z,100233.03
2023-11-24T20:20:09.716Z,100232.84
2023-11-24T20:22:36.185Z,100227.78
2023-11-24T20:25:05.095Z,100235.25
2023-11-24T20:27:31.517Z,100239.69
2023-11-24T20:29:58.683Z,100243.34
2023-11-24T20:32:25.122Z,100246.31
2023-11-24T20:34:51.560Z,100232.63
2023-11-24T20:37:18.232Z,100271.88
2023-11-24T20:39:45.180Z,100296.09
2023-11-24T20:42:12.403Z,100314.09
2023-11-24T20:44:39.122Z,100303.38
2023-11-24T20:47:05.788Z,100338.50
2023-11-24T20:49:32.341Z,100343.00
2023-11-24T20:51:58.815Z,100325.81
2023-11-24T20:54:25.205Z,100323.47
2023-11-24T20:56:51.804Z,100300.94
2023-11-24T20:59:18.742Z,100307.91
2023-11-24T21:01:45.348Z,100312.16
2023-11-24T21:04:13.256Z,100322.53
2023-11-24T21:06:41.241Z,100325.94
2023-11-24T21:09:11.056Z,100329.16
2023-11-24T21:11:37.514Z,100331.69
2023-11-24T21:14:03.861Z,100319.50
2023-11-24T21:16:30.852Z,100332.38
2023-11-24T21:18:57.271Z,100310.66
2023-11-24T21:21:23.730Z,100318.47
2023-11-24T21:23:50.810Z,100310.44
2023-11-24T21:26:24.055Z,100321.13
2023-11-24T21:28:51.750Z,100319.25
2023-11-24T21:31:21.596Z,100327.75
2023-11-24T21:33:50.019Z,100331.34
2023-11-24T21:36:16.844Z,100362.47
2023-11-24T21:38:44.147Z,100375.53
2023-11-24T21:41:12.022Z,100370.28
2023-11-24T21:43:40.686Z,100370.91
2023-11-24T21:46:07.380Z,100383.09
2023-11-24T21:48:34.275Z,100384.03
2023-11-24T21:51:05.253Z,100388.19
2023-11-24T21:53:31.731Z,100401.94
2023-11-24T21:55:58.181Z,100405.53
2023-11-24T21:58:24.603Z,100400.03
2023-11-24T22:00:50.972Z,100403.66
2023-11-24T22:03:17.430Z,100399.22
2023-11-24T22:05:44.608Z,100401.81
2023-11-24T22:08:10.991Z,100406.16
2023-11-24T22:10:37.465Z,100421.78
2023-11-24T22:13:04.991Z,100420.25
2023-11-24T22:15:31.630Z,100420.13
2023-11-24T22:17:58.903Z,100422.50
2023-11-24T22:20:25.404Z,100422.72
2023-11-24T22:22:51.962Z,100437.38
2023-11-24T22:25:18.503Z,100434.06
2023-11-24T22:27:45.111Z,100441.63
2023-11-24T22:30:11.739Z,100451.38
2023-11-24T22:32:38.209Z,100460.13
2023-11-24T22:35:05.116Z,100468.66
2023-11-24T22:37:32.915Z,100470.41
2023-11-24T22:39:59.598Z,100477.19
2023-11-24T22:42:26.030Z,100482.59
2023-11-24T22:44:53.972Z,100482.22
2023-11-24T22:47:20.541Z,100473.66
2023-11-24T22:49:46.989Z,100477.00
2023-11-24T22:52:13.445Z,100476.19
2023-11-24T22:54:41.848Z,100483.38
2023-11-24T22:57:08.252Z,100487.59
2023-11-24T22:59:34.721Z,100496.31
2023-11-24T23:02:01.483Z,100498.19
2023-11-24T23:04:28.046Z,100491.25
2023-11-24T23:06:54.397Z,100487.94
2023-11-24T23:09:22.787Z,100484.47
2023-11-24T23:11:49.969Z,100496.53
2023-11-24T23:14:16.380Z,100487.81
2023-11-24T23:16:44.950Z,100496.69
2023-11-24T23:19:12.737Z,100500.06
2023-11-24T23:21:41.552Z,100508.75
2023-11-24T23:24:11.539Z,100505.25
2023-11-24T23:26:38.533Z,100512.16
2023-11-24T23:29:05.029Z,100519.22
2023-11-24T23:31:31.489Z,100526.22
2023-11-24T23:33:57.979Z,100525.38
2023-11-24T23:36:24.527Z,100534.03
2023-11-24T23:38:51.316Z,100527.69
2023-11-24T23:41:17.848Z,100536.63
2023-11-24T23:43:44.418Z,100534.78
2023-11-24T23:46:12.973Z,100534.72
2023-11-24T23:48:39.948Z,100538.34
2023-11-24T23:51:07.443Z,100533.16
2023-11-24T23:53:34.239Z,100534.91
2023-11-24T23:56:01.022Z,100540.34
2023-11-24T23:58:27.761Z,100543.00
